Time;durP1;ratioP1;P1;durP2;ratioP2;P2;SDS_P1;SDS_P2;PMS_P1;PMS_P2;Temp;Humidity;BMP_temperature;BMP_pressure;BME280_temperature;BME280_humidity;BME280_pressure;Samples;Min_cycle;Max_cycle;Signal;HPM_P1;HPM_P2
2023/12/01 00:00:07;;;;;;;30.05;13.18;;;;;;;;;;6193874;23;20012;-85
2023/12/01 00:02:40;;;;;;;26.40;12.23;;;;;;;;;;6194300;23;20407;-84
2023/12/01 00:05:11;;;;;;;31.98;13.32;;;;;;;;;;6194091;23;20077;-85
2023/12/01 00:07:43;;;;;;;27.20;12.30;;;;;;;;;;6194179;23;20026;-85
2023/12/01 00:10:23;;;;;;;30.70;13.60;;;;;;;;;;6193766;23;20062;-84
2023/12/01 00:12:55;;;;;;;32.03;12.55;;;;;;;;;;6175995;23;20091;-84
2023/12/01 00:21:26;;;;;;;33.75;15.10;;;;;;;;;;6188395;23;20028;-85
2023/12/01 00:26:55;;;;;;;28.40;12.65;;;;;;;;;;6188865;23;20017;-84
2023/12/01 00:29:34;;;;;;;27.90;12.65;;;;;;;;;;6163599;23;20055;-84
2023/12/01 00:32:06;;;;;;;28.45;12.95;;;;;;;;;;6163981;23;20378;-84
2023/12/01 00:34:58;;;;;;;31.95;13.35;;;;;;;;;;6167059;23;20036;-84
2023/12/01 00:37:51;;;;;;;;;;;;;;;;;;;;;
2023/12/01 00:40:50;;;;;;;27.25;12.15;;;;;;;;;;6188777;23;20075;-84
2023/12/01 00:43:42;;;;;;;;;;;;;;;;;;;;;
2023/12/01 00:49:31;;;;;;;31.20;12.70;;;;;;;;;;6188724;23;20079;-84
2023/12/01 00:52:00;;;;;;;30.40;13.38;;;;;;;;;;6162159;23;20017;-84
2023/12/01 00:55:08;;;;;;;;;;;;;;;;;;;;;
2023/12/01 00:57:53;;;;;;;25.23;12.50;;;;;;;;;;6187611;23;20021;-84
2023/12/01 01:00:22;;;;;;;28.02;12.27;;;;;;;;;;6162559;23;20024;-84
2023/12/01 01:03:15;;;;;;;;;;;;;;;;;;;;;
2023/12/01 01:06:00;;;;;;;;;;;;;;;;;;;;;
2023/12/01 01:08:30;;;;;;;24.63;11.75;;;;;;;;;;6188246;23;20023;-85
2023/12/01 01:10:59;;;;;;;26.25;12.32;;;;;;;;;;6161394;23;20095;-84
2023/12/01 01:13:33;;;;;;;28.98;12.23;;;;;;;;;;6188262;23;20016;-85
2023/12/01 01:16:16;;;;;;;;;;;;;;;;;;;;;
2023/12/01 01:18:44;;;;;;;31.77;13.48;;;;;;;;;;6218310;23;20020;-84
2023/12/01 01:21:11;;;;;;;30.45;12.68;;;;;;;;;;6192478;23;20020;-84
2023/12/01 01:23:47;;;;;;;34.85;13.27;;;;;;;;;;6193587;23;20020;-84
2023/12/01 01:26:17;;;;;;;29.98;12.75;;;;;;;;;;6192512;23;20012;-85
2023/12/01 01:28:54;;;;;;;29.02;11.95;;;;;;;;;;6192849;23;20408;-84
2023/12/01 01:31:34;;;;;;;25.55;11.70;;;;;;;;;;6195697;23;20100;-84
2023/12/01 01:34:03;;;;;;;28.98;11.88;;;;;;;;;;6192638;23;20027;-85
2023/12/01 01:36:39;;;;;;;30.75;12.15;;;;;;;;;;6192382;23;20012;-84
2023/12/01 01:39:09;;;;;;;28.13;13.30;;;;;;;;;;6188782;23;20020;-84
2023/12/01 01:41:46;;;;;;;28.05;12.25;;;;;;;;;;6192980;23;20016;-84
2023/12/01 01:44:14;;;;;;;29.55;13.32;;;;;;;;;;6191441;23;20392;-84
2023/12/01 01:46:56;;;;;;;31.70;13.40;;;;;;;;;;6193216;23;20027;-84
2023/12/01 01:49:30;;;;;;;36.08;13.00;;;;;;;;;;6193011;23;20520;-84
2023/12/01 01:52:03;;;;;;;30.33;12.60;;;;;;;;;;6192736;23;20456;-84
2023/12/01 01:54:32;;;;;;;31.50;13.68;;;;;;;;;;6192200;23;20039;-84
2023/12/01 01:57:06;;;;;;;32.05;14.20;;;;;;;;;;6192832;23;20345;-84
2023/12/01 01:59:32;;;;;;;35.83;14.50;;;;;;;;;;6192681;23;20016;-84
2023/12/01 02:01:58;;;;;;;36.70;14.77;;;;;;;;;;6194559;23;20099;-84
2023/12/01 02:04:25;;;;;;;35.10;14.10;;;;;;;;;;6193947;23;20035;-84
2023/12/01 02:06:51;;;;;;;36.67;15.80;;;;;;;;;;6194003;23;20019;-84
2023/12/01 02:09:17;;;;;;;32.50;14.45;;;;;;;;;;6194536;23;20016;-84
2023/12/01 02:11:46;;;;;;;32.22;13.75;;;;;;;;;;6193663;23;20016;-84
2023/12/01 02:14:14;;;;;;;32.95;14.20;;;;;;;;;;6194521;23;20443;-84
2023/12/01 02:16:45;;;;;;;32.80;14.15;;;;;;;;;;6194809;23;20012;-84
2023/12/01 02:19:12;;;;;;;33.58;14.18;;;;;;;;;;6194585;23;20340;-84
2023/12/01 02:21:43;;;;;;;32.97;14.55;;;;;;;;;;6194447;23;20464;-84
2023/12/01 02:24:12;;;;;;;32.97;14.43;;;;;;;;;;6194265;23;20055;-84
2023/12/01 02:26:41;;;;;;;30.75;14.10;;;;;;;;;;6194284;23;20020;-84
2023/12/01 02:29:07;;;;;;;32.95;14.20;;;;;;;;;;6192635;23;20111;-84
2023/12/01 02:31:40;;;;;;;33.40;15.23;;;;;;;;;;6195114;23;20028;-84
2023/12/01 02:34:07;;;;;;;31.25;13.30;;;;;;;;;;6194240;23;20020;-84
2023/12/01 02:36:33;;;;;;;35.10;14.38;;;;;;;;;;6194283;23;20027;-84
2023/12/01 02:38:59;;;;;;;32.05;13.30;;;;;;;;;;6193916;23;20012;-84
2023/12/01 02:41:25;;;;;;;30.08;13.45;;;;;;;;;;6194824;23;20497;-84
2023/12/01 02:43:51;;;;;;;31.88;14.10;;;;;;;;;;6194107;23;20061;-85
2023/12/01 02:46:22;;;;;;;31.73;14.52;;;;;;;;;;6193079;23;20024;-86
2023/12/01 02:48:51;;;;;;;31.45;13.27;;;;;;;;;;6193893;23;20119;-86
2023/12/01 02:51:24;;;;;;;30.98;14.30;;;;;;;;;;6194232;23;20020;-86
2023/12/01 02:53:58;;;;;;;35.20;15.00;;;;;;;;;;6193809;23;20170;-86
2023/12/01 02:56:24;;;;;;;28.55;14.10;;;;;;;;;;6193764;23;20031;-86
2023/12/01 02:58:53;;;;;;;31.20;14.10;;;;;;;;;;6194406;23;20023;-86
2023/12/01 03:01:23;;;;;;;30.08;13.40;;;;;;;;;;6194292;23;20024;-86
2023/12/01 03:03:51;;;;;;;31.17;13.55;;;;;;;;;;6193894;23;20079;-86
2023/12/01 03:06:20;;;;;;;31.83;14.35;;;;;;;;;;6194287;23;20143;-86
2023/12/01 03:08:46;;;;;;;31.02;13.52;;;;;;;;;;6194234;23;20020;-86
2023/12/01 03:11:13;;;;;;;26.98;12.35;;;;;;;;;;6194325;23;20095;-86
2023/12/01 03:13:39;;;;;;;30.02;13.88;;;;;;;;;;6193994;23;20019;-86
2023/12/01 03:16:05;;;;;;;29.85;14.00;;;;;;;;;;6193867;23;20070;-86
2023/12/01 03:18:32;;;;;;;28.25;13.55;;;;;;;;;;6194581;23;20028;-86
2023/12/01 03:21:01;;;;;;;30.35;14.55;;;;;;;;;;6194659;23;20012;-86
2023/12/01 03:23:27;;;;;;;29.50;13.25;;;;;;;;;;6194701;23;20077;-86
2023/12/01 03:25:53;;;;;;;27.90;13.73;;;;;;;;;;6193345;23;20020;-86
2023/12/01 03:28:22;;;;;;;30.60;13.90;;;;;;;;;;6192341;23;20521;-86
2023/12/01 03:30:55;;;;;;;27.65;12.68;;;;;;;;;;6193824;23;20016;-86
2023/12/01 03:33:21;;;;;;;31.73;13.30;;;;;;;;;;6193672;23;20464;-86
2023/12/01 03:35:50;;;;;;;28.80;14.07;;;;;;;;;;6194586;23;20016;-86
2023/12/01 03:38:18;;;;;;;30.45;12.70;;;;;;;;;;6193915;23;20016;-86
2023/12/01 03:40:44;;;;;;;33.72;13.90;;;;;;;;;;6194001;23;20012;-86
2023/12/01 03:43:11;;;;;;;30.38;12.75;;;;;;;;;;6193987;23;20048;-86
2023/12/01 03:45:37;;;;;;;29.13;13.23;;;;;;;;;;6193367;23;20031;-86
2023/12/01 03:48:03;;;;;;;31.48;14.38;;;;;;;;;;6193975;23;20016;-86
2023/12/01 03:50:32;;;;;;;30.92;13.77;;;;;;;;;;6193351;23;20020;-86
2023/12/01 03:53:01;;;;;;;32.10;13.75;;;;;;;;;;6193669;23;20016;-86
2023/12/01 03:55:30;;;;;;;33.28;15.13;;;;;;;;;;6193301;23;20024;-86
2023/12/01 03:57:56;;;;;;;31.15;14.07;;;;;;;;;;6193149;23;20154;-85
2023/12/01 04:00:22;;;;;;;32.13;15.20;;;;;;;;;;6192991;23;20012;-86
2023/12/01 04:02:51;;;;;;;36.30;15.02;;;;;;;;;;6193327;23;20333;-86
2023/12/01 04:05:22;;;;;;;26.30;11.82;;;;;;;;;;6192155;23;20546;-86
2023/12/01 04:07:51;;;;;;;20.10;10.73;;;;;;;;;;6193926;23;20027;-86
2023/12/01 04:10:20;;;;;;;22.67;10.80;;;;;;;;;;6193650;23;20024;-86
2023/12/01 04:12:47;;;;;;;24.55;11.85;;;;;;;;;;6191724;23;20031;-86
2023/12/01 04:15:19;;;;;;;25.25;11.63;;;;;;;;;;6194686;23;20077;-86
2023/12/01 04:17:46;;;;;;;27.27;11.27;;;;;;;;;;6193736;23;20012;-86
2023/12/01 04:20:25;;;;;;;27.48;12.48;;;;;;;;;;6193820;23;20012;-86
2023/12/01 04:22:52;;;;;;;22.85;11.48;;;;;;;;;;6193269;23;20070;-86
2023/12/01 04:25:21;;;;;;;24.40;11.32;;;;;;;;;;6194173;23;20480;-86
2023/12/01 04:27:48;;;;;;;30.00;12.75;;;;;;;;;;6192878;23;20452;-85
2023/12/01 04:30:15;;;;;;;28.40;12.57;;;;;;;;;;6193751;23;20016;-86
2023/12/01 04:32:45;;;;;;;28.27;12.40;;;;;;;;;;6193234;23;20013;-85
2023/12/01 04:35:12;;;;;;;24.65;10.48;;;;;;;;;;6193505;23;20095;-86
2023/12/01 04:37:39;;;;;;;24.60;11.70;;;;;;;;;;6193320;23;20074;-85
2023/12/01 04:40:13;;;;;;;25.15;11.05;;;;;;;;;;6193809;23;20066;-85
2023/12/01 04:42:39;;;;;;;24.50;11.20;;;;;;;;;;6193134;23;20016;-85
2023/12/01 04:45:07;;;;;;;23.25;11.07;;;;;;;;;;6194273;23;20028;-85
2023/12/01 04:47:33;;;;;;;20.65;9.55;;;;;;;;;;6193565;23;20020;-85
2023/12/01 04:49:59;;;;;;;22.25;11.02;;;;;;;;;;6193564;23;20150;-85
2023/12/01 04:52:25;;;;;;;18.40;8.43;;;;;;;;;;6194845;23;20481;-85
2023/12/01 04:54:53;;;;;;;28.67;7.65;;;;;;;;;;6194687;23;20380;-85
2023/12/01 04:57:22;;;;;;;26.50;8.60;;;;;;;;;;6194666;23;20016;-85
2023/12/01 04:59:56;;;;;;;13.65;6.80;;;;;;;;;;6193284;23;20016;-85
2023/12/01 05:02:23;;;;;;;16.05;8.02;;;;;;;;;;6194433;23;20077;-85
2023/12/01 05:04:50;;;;;;;17.38;8.88;;;;;;;;;;6194840;23;20020;-85
2023/12/01 05:07:16;;;;;;;113.50;11.32;;;;;;;;;;6194483;23;20020;-85
2023/12/01 05:09:42;;;;;;;222.95;17.13;;;;;;;;;;6194937;23;20078;-85
2023/12/01 05:12:08;;;;;;;171.30;18.02;;;;;;;;;;6193658;23;20028;-85
2023/12/01 05:14:35;;;;;;;82.70;12.00;;;;;;;;;;6194618;23;20062;-85
2023/12/01 05:17:01;;;;;;;112.70;12.65;;;;;;;;;;6194756;23;20075;-85
2023/12/01 05:19:27;;;;;;;15.68;8.05;;;;;;;;;;6195040;23;20027;-85
2023/12/01 05:21:53;;;;;;;13.10;7.05;;;;;;;;;;6195817;23;20070;-85
2023/12/01 05:24:19;;;;;;;11.05;6.07;;;;;;;;;;6194877;23;20016;-85
2023/12/01 05:26:51;;;;;;;9.63;5.22;;;;;;;;;;6195809;23;20091;-85
2023/12/01 05:29:17;;;;;;;12.15;6.22;;;;;;;;;;6194451;23;20012;-85
2023/12/01 05:31:43;;;;;;;11.40;6.53;;;;;;;;;;6195015;23;20012;-85
2023/12/01 05:34:09;;;;;;;12.02;6.20;;;;;;;;;;6197078;23;20012;-85
2023/12/01 05:36:41;;;;;;;12.40;6.78;;;;;;;;;;6198861;23;20016;-85
2023/12/01 05:39:12;;;;;;;12.23;6.85;;;;;;;;;;6198656;23;20020;-85
2023/12/01 05:41:43;;;;;;;12.38;6.55;;;;;;;;;;6198661;23;20018;-85
2023/12/01 05:44:09;;;;;;;13.07;6.60;;;;;;;;;;6198132;23;20016;-85
2023/12/01 05:46:35;;;;;;;12.68;6.88;;;;;;;;;;6197788;23;20119;-85
2023/12/01 05:49:02;;;;;;;9.23;5.90;;;;;;;;;;6198446;23;20031;-85
2023/12/01 05:51:33;;;;;;;12.15;6.57;;;;;;;;;;6198462;23;20022;-86
2023/12/01 05:53:59;;;;;;;13.25;7.03;;;;;;;;;;6197806;23;20051;-85
2023/12/01 05:56:27;;;;;;;31.65;8.02;;;;;;;;;;6198537;23;20016;-85
2023/12/01 05:58:53;;;;;;;12.73;6.50;;;;;;;;;;6197225;23;20046;-85
2023/12/01 06:01:25;;;;;;;15.07;7.25;;;;;;;;;;6201384;23;20027;-85
2023/12/01 06:03:51;;;;;;;20.88;8.38;;;;;;;;;;6203713;23;20050;-85
2023/12/01 06:06:23;;;;;;;16.92;8.38;;;;;;;;;;6202117;23;20020;-85
2023/12/01 06:08:49;;;;;;;15.18;7.93;;;;;;;;;;6200346;23;20449;-85
2023/12/01 06:11:16;;;;;;;15.23;7.43;;;;;;;;;;6198972;23;20019;-85
2023/12/01 06:13:42;;;;;;;16.50;7.80;;;;;;;;;;6199754;23;20024;-85
2023/12/01 06:16:08;;;;;;;16.58;8.50;;;;;;;;;;6201884;23;20043;-85
2023/12/01 06:18:34;;;;;;;14.70;7.32;;;;;;;;;;6201447;23;20445;-85
2023/12/01 06:21:00;;;;;;;15.65;8.77;;;;;;;;;;6201789;23;20012;-85
2023/12/01 06:23:26;;;;;;;15.30;7.60;;;;;;;;;;6202112;23;20020;-85
2023/12/01 06:25:53;;;;;;;16.00;7.70;;;;;;;;;;6204066;23;20101;-85
2023/12/01 06:28:19;;;;;;;16.88;7.10;;;;;;;;;;6203293;23;20016;-85
2023/12/01 06:30:48;;;;;;;15.57;7.43;;;;;;;;;;6203771;23;20024;-85
2023/12/01 06:33:17;;;;;;;12.55;7.35;;;;;;;;;;6200224;23;20026;-85
2023/12/01 06:35:44;;;;;;;13.60;7.82;;;;;;;;;;6197101;23;20071;-85
2023/12/01 06:38:10;;;;;;;13.88;8.02;;;;;;;;;;6201497;23;20020;-85
2023/12/01 06:40:36;;;;;;;15.07;8.52;;;;;;;;;;6199876;23;20518;-86
2023/12/01 06:43:09;;;;;;;15.00;8.02;;;;;;;;;;6199707;23;20520;-86
2023/12/01 06:45:36;;;;;;;17.55;7.72;;;;;;;;;;6199101;23;20031;-85
2023/12/01 06:48:02;;;;;;;16.08;7.95;;;;;;;;;;6196561;23;20146;-86
2023/12/01 06:50:28;;;;;;;17.90;7.80;;;;;;;;;;6198479;23;20016;-85
2023/12/01 06:53:01;;;;;;;11.93;6.90;;;;;;;;;;6197209;23;20023;-88
2023/12/01 06:58:40;;;;;;;13.50;6.65;;;;;;;;;;6252110;23;20017;-86
2023/12/01 07:01:06;;;;;;;14.85;6.93;;;;;;;;;;6195178;23;20510;-85
2023/12/01 07:03:32;;;;;;;16.15;7.45;;;;;;;;;;6193844;23;20027;-86
2023/12/01 07:05:58;;;;;;;15.48;7.88;;;;;;;;;;6194302;23;20058;-85
2023/12/01 07:08:24;;;;;;;14.18;7.53;;;;;;;;;;6218942;23;20095;-85
2023/12/01 07:10:51;;;;;;;17.60;8.40;;;;;;;;;;6194200;23;20020;-85
2023/12/01 07:13:18;;;;;;;17.25;7.90;;;;;;;;;;6193267;23;20381;-85
2023/12/01 07:15:47;;;;;;;17.75;8.23;;;;;;;;;;6194272;23;20024;-85
2023/12/01 07:18:13;;;;;;;14.65;7.93;;;;;;;;;;6194532;23;20094;-86
2023/12/01 07:20:39;;;;;;;15.05;7.18;;;;;;;;;;6194312;23;20028;-85
2023/12/01 07:23:05;;;;;;;17.92;7.93;;;;;;;;;;6194722;23;20115;-86
2023/12/01 07:25:31;;;;;;;17.42;8.75;;;;;;;;;;6194834;23;20099;-86
2023/12/01 07:28:02;;;;;;;111.28;31.10;;;;;;;;;;6194739;23;20074;-85
2023/12/01 07:30:29;;;;;;;135.82;36.67;;;;;;;;;;6195009;23;20016;-86
2023/12/01 07:32:55;;;;;;;247.80;57.80;;;;;;;;;;6194219;23;20411;-86
2023/12/01 07:35:22;;;;;;;216.23;53.42;;;;;;;;;;6194885;23;20013;-86
2023/12/01 07:37:51;;;;;;;243.45;56.45;;;;;;;;;;6194088;23;20115;-85
2023/12/01 07:40:19;;;;;;;184.70;46.78;;;;;;;;;;6194625;23;20412;-85
2023/12/01 07:42:49;;;;;;;147.30;38.88;;;;;;;;;;6194625;23;20017;-84
2023/12/01 07:45:17;;;;;;;36.15;14.27;;;;;;;;;;6194356;23;20470;-85
2023/12/01 07:47:47;;;;;;;34.47;13.32;;;;;;;;;;6195914;23;20070;-84
2023/12/01 07:50:14;;;;;;;28.83;14.07;;;;;;;;;;6219127;23;20441;-85
2023/12/01 07:52:44;;;;;;;38.30;14.75;;;;;;;;;;6193383;23;20052;-84
2023/12/01 07:55:10;;;;;;;23.08;10.35;;;;;;;;;;6193514;23;20024;-85
2023/12/01 07:57:37;;;;;;;20.25;9.30;;;;;;;;;;6218217;23;20460;-85
2023/12/01 08:00:06;;;;;;;23.13;9.30;;;;;;;;;;6194308;23;20018;-84
2023/12/01 08:02:32;;;;;;;21.42;8.90;;;;;;;;;;6193135;23;20099;-85
2023/12/01 08:04:58;;;;;;;18.23;8.57;;;;;;;;;;6193504;23;20016;-85
2023/12/01 08:07:24;;;;;;;18.13;8.98;;;;;;;;;;6193429;23;20016;-85
2023/12/01 08:09:50;;;;;;;21.70;9.55;;;;;;;;;;6193158;23;20068;-85
2023/12/01 08:12:25;;;;;;;26.73;11.10;;;;;;;;;;6193442;23;20020;-86
2023/12/01 08:14:51;;;;;;;35.05;13.57;;;;;;;;;;6194040;23;20079;-86
2023/12/01 08:23:33;;;;;;;18.73;8.25;;;;;;;;;;6092704;23;20027;-86
2023/12/01 08:26:11;;;;;;;20.48;9.80;;;;;;;;;;6068971;23;20475;-85
2023/12/01 08:28:39;;;;;;;21.33;10.27;;;;;;;;;;6115768;23;20204;-88
2023/12/01 08:31:11;;;;;;;22.67;11.25;;;;;;;;;;6130430;23;20020;-87
2023/12/01 08:33:40;;;;;;;22.58;10.45;;;;;;;;;;6133132;23;20089;-86
2023/12/01 08:36:07;;;;;;;24.65;11.25;;;;;;;;;;6132695;23;20021;-86
2023/12/01 08:38:33;;;;;;;24.83;9.73;;;;;;;;;;6132400;23;20045;-86
2023/12/01 08:40:59;;;;;;;27.63;12.13;;;;;;;;;;6156793;23;20422;-86
2023/12/01 08:43:25;;;;;;;24.80;12.70;;;;;;;;;;6132589;23;20453;-86
2023/12/01 08:45:54;;;;;;;27.42;11.93;;;;;;;;;;6133477;23;20013;-86
2023/12/01 08:48:20;;;;;;;27.13;11.75;;;;;;;;;;6133047;23;20013;-86
2023/12/01 08:50:46;;;;;;;22.98;11.30;;;;;;;;;;6169598;23;20043;-86
2023/12/01 08:53:15;;;;;;;27.73;11.70;;;;;;;;;;6193763;23;20019;-86
2023/12/01 08:55:53;;;;;;;27.35;11.38;;;;;;;;;;6196540;23;20016;-86
2023/12/01 08:58:19;;;;;;;24.95;11.90;;;;;;;;;;6194782;23;20027;-86
2023/12/01 09:00:45;;;;;;;54.90;17.63;;;;;;;;;;6195276;23;20020;-86
2023/12/01 09:03:11;;;;;;;34.97;14.82;;;;;;;;;;6195811;23;20027;-86
2023/12/01 09:05:38;;;;;;;42.75;17.33;;;;;;;;;;6196062;23;20024;-87
2023/12/01 09:08:05;;;;;;;36.55;14.40;;;;;;;;;;6196553;23;20432;-87
2023/12/01 09:10:35;;;;;;;29.63;13.45;;;;;;;;;;6198790;23;20071;-87
2023/12/01 09:13:03;;;;;;;29.85;13.45;;;;;;;;;;6198522;23;20074;-87
2023/12/01 09:15:29;;;;;;;29.02;11.95;;;;;;;;;;6198843;23;20070;-87
2023/12/01 09:17:55;;;;;;;25.27;11.00;;;;;;;;;;6199209;23;20150;-87
2023/12/01 09:20:21;;;;;;;29.70;12.88;;;;;;;;;;6199358;23;20113;-87
2023/12/01 09:22:50;;;;;;;24.85;11.85;;;;;;;;;;6199517;23;20403;-87
2023/12/01 09:25:16;;;;;;;25.85;12.23;;;;;;;;;;6198312;23;20019;-87
2023/12/01 09:27:42;;;;;;;29.98;12.35;;;;;;;;;;6197624;23;20086;-87
2023/12/01 09:30:16;;;;;;;27.00;12.57;;;;;;;;;;6195585;23;20065;-87
2023/12/01 09:32:43;;;;;;;24.48;10.63;;;;;;;;;;6196269;23;20012;-87
2023/12/01 09:35:09;;;;;;;27.17;12.10;;;;;;;;;;6196806;23;20012;-87
2023/12/01 09:37:37;;;;;;;28.45;12.32;;;;;;;;;;6197360;23;20512;-87
2023/12/01 09:40:07;;;;;;;23.92;11.77;;;;;;;;;;6197901;23;20062;-87
2023/12/01 09:42:33;;;;;;;25.85;11.40;;;;;;;;;;6195216;23;20508;-87
2023/12/01 09:45:01;;;;;;;24.50;10.60;;;;;;;;;;6195073;23;20012;-87
2023/12/01 09:47:32;;;;;;;32.00;13.32;;;;;;;;;;6195112;23;20024;-87
2023/12/01 09:49:59;;;;;;;31.48;14.23;;;;;;;;;;6195277;23;20448;-87
2023/12/01 09:52:25;;;;;;;29.60;13.70;;;;;;;;;;6195597;23;20103;-87
2023/12/01 09:54:51;;;;;;;31.50;13.90;;;;;;;;;;6196090;23;20043;-87
2023/12/01 09:57:18;;;;;;;32.40;13.25;;;;;;;;;;6196512;23;20012;-87
2023/12/01 09:59:49;;;;;;;31.02;12.85;;;;;;;;;;6196470;23;20020;-87
2023/12/01 10:02:21;;;;;;;30.70;13.90;;;;;;;;;;6196323;23;20016;-87
2023/12/01 10:04:48;;;;;;;31.02;13.18;;;;;;;;;;6195518;23;20161;-87
2023/12/01 10:07:14;;;;;;;28.00;12.90;;;;;;;;;;6195433;23;20008;-87
2023/12/01 10:09:40;;;;;;;31.95;12.70;;;;;;;;;;6197782;23;20457;-87
2023/12/01 10:12:07;;;;;;;28.95;13.40;;;;;;;;;;6196608;23;20020;-87
2023/12/01 10:14:34;;;;;;;28.38;13.02;;;;;;;;;;6196266;23;20091;-87
2023/12/01 10:17:14;;;;;;;27.83;11.68;;;;;;;;;;6195784;23;20047;-87
2023/12/01 10:19:45;;;;;;;25.85;11.93;;;;;;;;;;6195169;23;20341;-85
2023/12/01 10:22:18;;;;;;;25.60;11.93;;;;;;;;;;6196019;23;20042;-85
2023/12/01 10:25:00;;;;;;;25.70;11.80;;;;;;;;;;6196138;23;20016;-85
2023/12/01 10:27:29;;;;;;;24.98;11.55;;;;;;;;;;6196484;23;20141;-84
2023/12/01 10:30:09;;;;;;;25.65;12.00;;;;;;;;;;6196869;23;20020;-85
2023/12/01 10:32:36;;;;;;;25.08;12.10;;;;;;;;;;6196768;23;20035;-84
2023/12/01 10:35:02;;;;;;;22.85;12.10;;;;;;;;;;6196450;23;20115;-84
2023/12/01 10:37:30;;;;;;;22.40;10.70;;;;;;;;;;6195960;23;20023;-84
2023/12/01 10:39:59;;;;;;;24.55;12.45;;;;;;;;;;6196141;23;20048;-85
2023/12/01 10:42:28;;;;;;;27.35;11.95;;;;;;;;;;6195536;23;20017;-84
2023/12/01 10:44:56;;;;;;;21.38;10.77;;;;;;;;;;6195123;23;20017;-85
2023/12/01 10:47:22;;;;;;;24.77;11.70;;;;;;;;;;6194310;23;20012;-84
2023/12/01 10:49:49;;;;;;;25.98;12.13;;;;;;;;;;6220269;23;20504;-85
2023/12/01 10:52:23;;;;;;;25.63;11.85;;;;;;;;;;6196242;23;20047;-85
2023/12/01 10:54:54;;;;;;;25.75;11.90;;;;;;;;;;6195241;23;20023;-84
2023/12/01 10:57:30;;;;;;;24.02;12.23;;;;;;;;;;6194774;23;20095;-84
2023/12/01 10:59:59;;;;;;;24.92;13.38;;;;;;;;;;6195911;23;20094;-84
2023/12/01 11:02:31;;;;;;;26.00;12.85;;;;;;;;;;6196201;23;20020;-86
2023/12/01 11:04:58;;;;;;;22.38;12.00;;;;;;;;;;6195940;23;20020;-87
2023/12/01 11:07:30;;;;;;;19.77;10.80;;;;;;;;;;6194758;23;20016;-84
2023/12/01 11:10:00;;;;;;;23.98;11.52;;;;;;;;;;6195689;23;20016;-84
2023/12/01 11:12:28;;;;;;;24.30;12.77;;;;;;;;;;6194415;23;20094;-85
2023/12/01 11:14:57;;;;;;;21.70;10.80;;;;;;;;;;6194686;23;20020;-85
2023/12/01 11:17:23;;;;;;;21.92;11.68;;;;;;;;;;6194699;23;20016;-85
2023/12/01 11:19:49;;;;;;;24.02;11.95;;;;;;;;;;6196302;23;20027;-84
2023/12/01 11:22:27;;;;;;;23.08;11.57;;;;;;;;;;6195414;23;20348;-85
2023/12/01 11:24:53;;;;;;;24.50;11.65;;;;;;;;;;6194698;23;20441;-85
2023/12/01 11:27:19;;;;;;;27.45;12.20;;;;;;;;;;6194658;23;20066;-85
2023/12/01 11:30:06;;;;;;;21.30;11.35;;;;;;;;;;6194552;23;20012;-84
2023/12/01 11:35:49;;;;;;;25.13;12.43;;;;;;;;;;6128193;23;20104;-85
2023/12/01 11:38:35;;;;;;;24.30;11.90;;;;;;;;;;6123042;23;20036;-84
2023/12/01 11:41:04;;;;;;;23.20;11.57;;;;;;;;;;6193107;23;20020;-84
2023/12/01 11:43:35;;;;;;;21.17;11.32;;;;;;;;;;6193854;23;20013;-84
2023/12/01 11:46:11;;;;;;;22.92;12.50;;;;;;;;;;6193890;23;20020;-84
2023/12/01 11:48:43;;;;;;;23.00;11.05;;;;;;;;;;6194388;23;20016;-83
2023/12/01 11:51:09;;;;;;;22.65;11.75;;;;;;;;;;6193642;23;20016;-84
2023/12/01 11:53:35;;;;;;;25.20;12.07;;;;;;;;;;6193543;23;20020;-84
2023/12/01 11:56:01;;;;;;;26.80;14.32;;;;;;;;;;6193735;23;20012;-84
2023/12/01 11:58:27;;;;;;;24.60;12.95;;;;;;;;;;6193875;23;20023;-83
2023/12/01 12:00:54;;;;;;;27.27;13.07;;;;;;;;;;6193965;23;20023;-83
2023/12/01 12:03:21;;;;;;;24.33;11.95;;;;;;;;;;6193012;23;20016;-84
2023/12/01 12:05:54;;;;;;;25.35;12.88;;;;;;;;;;6219290;23;20016;-84
2023/12/01 12:08:50;;;;;;;23.73;11.82;;;;;;;;;;6192908;23;20016;-84
2023/12/01 12:11:19;;;;;;;22.88;11.57;;;;;;;;;;6194122;23;20016;-83
2023/12/01 12:14:04;;;;;;;25.70;12.38;;;;;;;;;;6193255;23;20020;-83
2023/12/01 12:16:31;;;;;;;25.67;12.85;;;;;;;;;;6193830;23;20008;-82
2023/12/01 12:18:58;;;;;;;29.70;13.70;;;;;;;;;;6193468;23;20013;-83
2023/12/01 12:21:24;;;;;;;23.98;11.80;;;;;;;;;;6193568;23;20016;-83
2023/12/01 12:23:50;;;;;;;23.15;11.88;;;;;;;;;;6218892;23;20069;-83
2023/12/01 12:26:17;;;;;;;25.88;12.90;;;;;;;;;;6193290;23;20341;-83
2023/12/01 12:28:46;;;;;;;26.40;12.63;;;;;;;;;;6193668;23;20028;-83
2023/12/01 12:31:12;;;;;;;25.85;12.38;;;;;;;;;;6193412;23;20090;-83
2023/12/01 12:33:39;;;;;;;26.98;12.82;;;;;;;;;;6193659;23;20017;-82
2023/12/01 12:36:05;;;;;;;23.98;13.13;;;;;;;;;;6193333;23;20094;-83
2023/12/01 12:38:33;;;;;;;24.15;13.50;;;;;;;;;;6193285;23;20016;-83
2023/12/01 12:40:59;;;;;;;24.73;11.88;;;;;;;;;;6193661;23;20020;-82
2023/12/01 12:43:26;;;;;;;25.60;12.55;;;;;;;;;;6193414;23;20016;-83
2023/12/01 12:45:54;;;;;;;25.15;12.93;;;;;;;;;;6193757;23;20012;-83
2023/12/01 12:48:27;;;;;;;27.10;12.60;;;;;;;;;;6194027;23;20322;-82
2023/12/01 12:50:53;;;;;;;25.30;12.20;;;;;;;;;;6196420;23;20092;-82
2023/12/01 12:53:21;;;;;;;24.08;13.25;;;;;;;;;;6194297;23;20074;-82
2023/12/01 12:55:48;;;;;;;24.83;12.32;;;;;;;;;;6194047;23;20098;-82
2023/12/01 12:58:14;;;;;;;27.02;13.35;;;;;;;;;;6193729;23;20013;-82
2023/12/01 13:00:40;;;;;;;24.63;12.18;;;;;;;;;;6193845;23;20020;-82
2023/12/01 13:03:06;;;;;;;24.98;13.60;;;;;;;;;;6193440;23;20016;-82
2023/12/01 13:05:32;;;;;;;27.25;12.88;;;;;;;;;;6193578;23;20503;-83
2023/12/01 13:07:58;;;;;;;25.45;12.48;;;;;;;;;;6193561;23;20102;-83
2023/12/01 13:10:24;;;;;;;26.98;13.10;;;;;;;;;;6193701;23;20067;-83
2023/12/01 13:12:51;;;;;;;26.88;12.02;;;;;;;;;;6177363;23;20027;-83
2023/12/01 13:15:17;;;;;;;24.63;12.77;;;;;;;;;;6163883;23;20013;-83
2023/12/01 13:17:59;;;;;;;;;;;;;;;;;;;;;
2023/12/01 13:20:37;;;;;;;28.80;13.10;;;;;;;;;;6188409;23;20345;-84
2023/12/01 13:23:04;;;;;;;26.50;12.48;;;;;;;;;;6163686;23;20100;-83
2023/12/01 13:50:20;;;;;;;24.65;13.40;;;;;;;;;;5871978;24;20122;-83
2023/12/01 13:55:58;;;;;;;23.85;12.32;;;;;;;;;;5972027;23;20049;-83
2023/12/01 14:15:49;;;;;;;;;;;;;;;;;;;;;
2023/12/01 14:18:42;;;;;;;25.10;12.98;;;;;;;;;;6215592;23;20091;-82
2023/12/01 15:09:10;;;;;;;27.10;14.77;;;;;;;;;;6189461;23;20015;-86
2023/12/01 15:14:40;;;;;;;27.55;14.68;;;;;;;;;;6216885;23;20043;-83
2023/12/01 15:17:06;;;;;;;25.80;13.20;;;;;;;;;;6194985;23;20019;-84
2023/12/01 15:22:57;;;;;;;25.92;13.77;;;;;;;;;;6246339;23;20467;-85
2023/12/01 15:25:24;;;;;;;26.88;13.52;;;;;;;;;;6195006;23;20065;-84
2023/12/01 15:27:50;;;;;;;24.48;13.13;;;;;;;;;;6194256;23;20020;-84
2023/12/01 15:30:16;;;;;;;21.40;12.52;;;;;;;;;;6194948;23;20012;-83
2023/12/01 15:32:45;;;;;;;26.27;13.40;;;;;;;;;;6194878;23;20016;-83
2023/12/01 15:35:12;;;;;;;27.33;14.40;;;;;;;;;;6194710;23;20429;-82
2023/12/01 15:37:38;;;;;;;26.77;13.38;;;;;;;;;;6193966;23;20016;-82
2023/12/01 15:40:04;;;;;;;28.85;13.90;;;;;;;;;;6194306;23;20017;-83
2023/12/01 15:42:31;;;;;;;29.45;16.38;;;;;;;;;;6194235;23;20019;-83
2023/12/01 15:44:57;;;;;;;27.42;13.88;;;;;;;;;;6194266;23;20012;-83
2023/12/01 15:47:25;;;;;;;30.60;15.25;;;;;;;;;;6194075;23;20016;-83
2023/12/01 15:49:51;;;;;;;30.15;15.32;;;;;;;;;;6193936;23;20479;-83
2023/12/01 15:52:17;;;;;;;30.67;16.58;;;;;;;;;;6194265;23;20016;-82
2023/12/01 15:54:43;;;;;;;36.65;18.88;;;;;;;;;;6194098;23;20039;-83
2023/12/01 15:57:09;;;;;;;30.17;15.95;;;;;;;;;;6194229;23;20437;-82
2023/12/01 15:59:38;;;;;;;30.38;15.50;;;;;;;;;;6194467;23;20016;-83
2023/12/01 16:02:04;;;;;;;28.45;14.93;;;;;;;;;;6193977;23;20023;-83
2023/12/01 16:04:31;;;;;;;26.98;16.08;;;;;;;;;;6194621;23;20016;-84
2023/12/01 16:06:57;;;;;;;30.35;15.23;;;;;;;;;;6194759;23;20028;-82
2023/12/01 16:09:26;;;;;;;30.60;15.27;;;;;;;;;;6194411;23;20020;-83
2023/12/01 16:11:52;;;;;;;29.02;15.10;;;;;;;;;;6196305;23;20115;-85
2023/12/01 16:14:22;;;;;;;29.40;16.20;;;;;;;;;;6196088;23;20074;-82
2023/12/01 16:16:50;;;;;;;33.55;16.25;;;;;;;;;;6193013;23;20020;-85
2023/12/01 16:19:16;;;;;;;29.83;15.70;;;;;;;;;;6220467;23;20098;-85
2023/12/01 16:22:12;;;;;;;28.88;14.73;;;;;;;;;;6194849;23;20403;-87
2023/12/01 16:24:41;;;;;;;34.28;17.50;;;;;;;;;;6182376;23;20027;-81
2023/12/01 16:27:07;;;;;;;27.48;16.05;;;;;;;;;;6195170;23;20027;-81
2023/12/01 16:29:33;;;;;;;31.73;16.85;;;;;;;;;;6221968;23;20023;-81
2023/12/01 16:32:01;;;;;;;32.55;16.60;;;;;;;;;;6221886;23;20080;-81
2023/12/01 16:34:28;;;;;;;33.63;17.20;;;;;;;;;;6196370;23;20022;-82
2023/12/01 16:36:54;;;;;;;33.47;16.90;;;;;;;;;;6197265;23;20017;-81
2023/12/01 16:39:20;;;;;;;35.35;17.73;;;;;;;;;;6197216;23;20058;-81
2023/12/01 16:41:46;;;;;;;36.88;17.13;;;;;;;;;;6192967;23;20039;-81